Terminal Aerodrome Forecast
Issued by NWS

Home | Current Version | Previous Version | Text Only | Print | Product List | Glossary On
Versions: 1 2 3 4 5 6 7 8 9 10 11 12 13
000
FTUS42 KTAE 211700
TAFABY
TAF
KABY 211720Z 2118/2218 06009KT 1 1/2SM BR OVC007
     FM211900 07007KT 3SM BR VCSH OVC004
     FM220200 08005KT 2SM -RA BR OVC003
     FM221400 07005KT 6SM -RA BR OVC004=

USA.gov is the U.S. government's official web portal to all federal, state and local government web resources and services.